createdAt,value
2018-02-11T00:02:00.453Z,4.23
2018-02-11T00:04:27.973Z,4.90
2018-02-11T00:06:56.260Z,4.27
2018-02-11T00:09:24.540Z,3.23
2018-02-11T00:11:52.060Z,3.90
2018-02-11T00:14:19.594Z,3.37
2018-02-11T00:16:47.151Z,3.20
2018-02-11T00:19:14.670Z,3.67
2018-02-11T00:21:42.329Z,3.37
2018-02-11T00:24:09.860Z,3.40
2018-02-11T00:26:38.286Z,1.93
2018-02-11T00:29:05.815Z,2.20
2018-02-11T00:31:33.320Z,3.37
2018-02-11T00:34:00.850Z,2.77
2018-02-11T00:36:28.404Z,3.50
2018-02-11T00:38:56.693Z,2.33
2018-02-11T00:41:24.989Z,3.23
2018-02-11T00:43:53.287Z,3.40
2018-02-11T00:46:20.797Z,1.53
2018-02-11T00:48:49.118Z,4.20
2018-02-11T00:51:16.627Z,3.00
2018-02-11T00:53:44.140Z,3.77
2018-02-11T00:56:12.412Z,3.60
2018-02-11T00:58:39.927Z,3.20
2018-02-11T01:01:07.423Z,3.60
2018-02-11T01:03:34.952Z,4.13
2018-02-11T01:06:02.480Z,4.20
2018-02-11T01:08:29.998Z,4.77
2018-02-11T01:10:57.501Z,4.50
2018-02-11T01:13:25.032Z,3.60
2018-02-11T01:15:52.550Z,4.60
2018-02-11T01:18:20.069Z,5.57
2018-02-11T01:20:48.373Z,4.97
2018-02-11T01:23:16.682Z,4.60
2018-02-11T01:25:44.216Z,5.50
2018-02-11T01:28:12.076Z,3.77
2018-02-11T01:30:40.045Z,4.73
2018-02-11T01:33:08.653Z,5.30
2018-02-11T01:35:37.283Z,5.00
2018-02-11T01:38:05.125Z,4.40
2018-02-11T01:40:32.795Z,4.97
2018-02-11T01:43:00.330Z,5.30
2018-02-11T01:45:27.835Z,4.43
2018-02-11T01:47:55.353Z,4.77
2018-02-11T01:50:22.889Z,4.37
2018-02-11T01:52:50.460Z,5.20
2018-02-11T01:55:18.043Z,4.53
2018-02-11T01:57:45.560Z,4.00
2018-02-11T02:00:13.063Z,4.70
2018-02-11T02:02:40.554Z,4.60
2018-02-11T02:05:08.284Z,4.70
2018-02-11T02:07:35.984Z,4.37
2018-02-11T02:10:03.498Z,4.13
2018-02-11T02:12:31.003Z,4.03
2018-02-11T02:14:59.631Z,4.43
2018-02-11T02:17:28.685Z,5.60
2018-02-11T02:19:56.292Z,5.90
2018-02-11T02:22:23.830Z,6.57
2018-02-11T02:24:51.345Z,6.60
2018-02-11T02:27:18.876Z,9.10
2018-02-11T02:29:47.046Z,7.47
2018-02-11T02:32:16.437Z,7.93
2018-02-11T02:34:43.973Z,8.40
2018-02-11T02:37:13.396Z,6.93
2018-02-11T02:39:41.140Z,7.53
2018-02-11T02:42:10.165Z,8.93
2018-02-11T02:44:37.792Z,6.67
2018-02-11T02:47:05.316Z,6.37
2018-02-11T02:49:32.846Z,7.00
2018-02-11T02:52:01.107Z,7.50
2018-02-11T02:54:28.636Z,5.60
2018-02-11T02:56:56.197Z,5.83
2018-02-11T02:59:24.466Z,6.20
2018-02-11T03:01:51.973Z,5.80
2018-02-11T03:04:19.686Z,6.60
2018-02-11T03:06:47.343Z,5.43
2018-02-11T03:09:14.958Z,5.67
2018-02-11T03:11:42.498Z,5.67
2018-02-11T03:14:10.011Z,5.50
2018-02-11T03:16:38.284Z,5.17
2018-02-11T03:19:05.824Z,5.53
2018-02-11T03:21:34.082Z,5.50
2018-02-11T03:24:01.580Z,5.37
2018-02-11T03:26:29.132Z,5.07
2018-02-11T03:29:00.550Z,4.90
2018-02-11T03:31:28.218Z,5.10
2018-02-11T03:33:56.018Z,3.53
2018-02-11T03:36:26.409Z,4.77
2018-02-11T03:38:54.130Z,5.27
2018-02-11T03:41:21.862Z,2.40
2018-02-11T03:43:49.627Z,4.30
2018-02-11T03:46:17.152Z,2.33
2018-02-11T03:48:44.657Z,2.90
2018-02-11T03:51:12.198Z,3.30
2018-02-11T03:53:39.785Z,2.67
2018-02-11T03:56:07.275Z,3.37
2018-02-11T03:58:40.638Z,2.70
2018-02-11T04:01:09.192Z,2.67
2018-02-11T04:03:37.009Z,1.93
2018-02-11T04:06:08.611Z,2.33
2018-02-11T04:08:36.586Z,1.90
2018-02-11T04:11:05.952Z,3.10
2018-02-11T04:13:33.588Z,3.03
2018-02-11T04:16:01.126Z,3.30
2018-02-11T04:18:28.662Z,2.93
2018-02-11T04:20:56.486Z,2.40
2018-02-11T04:23:24.321Z,1.20
2018-02-11T04:25:52.143Z,2.70
2018-02-11T04:28:19.814Z,3.60
2018-02-11T04:30:47.359Z,3.50
2018-02-11T04:33:15.278Z,3.10
2018-02-11T04:35:42.969Z,2.93
2018-02-11T04:38:10.647Z,2.70
2018-02-11T04:40:38.317Z,2.63
2018-02-11T04:43:06.498Z,2.87
2018-02-11T04:45:34.061Z,1.67
2018-02-11T04:48:01.576Z,2.17
2018-02-11T04:50:29.111Z,1.83
2018-02-11T04:52:57.391Z,2.30
2018-02-11T04:55:24.879Z,1.40
2018-02-11T04:57:53.194Z,1.80
2018-02-11T05:00:20.844Z,1.40
2018-02-11T05:02:48.370Z,1.17
2018-02-11T05:05:15.891Z,1.20
2018-02-11T05:07:43.417Z,1.00
2018-02-11T05:10:11.752Z,1.10
2018-02-11T05:12:39.256Z,1.47
2018-02-11T05:15:06.754Z,1.60
2018-02-11T05:17:34.272Z,2.00
2018-02-11T05:20:02.542Z,2.27
2018-02-11T05:22:30.845Z,1.73
2018-02-11T05:24:58.595Z,1.03
2018-02-11T05:27:26.092Z,1.37
2018-02-11T05:29:53.636Z,1.30
2018-02-11T05:32:21.127Z,0.90
2018-02-11T05:34:48.635Z,0.80
2018-02-11T05:37:16.271Z,0.47
2018-02-11T05:39:45.425Z,0.80
2018-02-11T05:42:13.110Z,0.90
2018-02-11T05:44:40.632Z,0.80
2018-02-11T05:47:08.168Z,0.80
2018-02-11T05:49:35.678Z,0.60
2018-02-11T05:52:03.188Z,0.67
2018-02-11T05:54:31.507Z,0.43
2018-02-11T05:56:59.048Z,0.60
2018-02-11T05:59:26.539Z,0.63
2018-02-11T06:01:54.081Z,0.70
2018-02-11T06:04:21.580Z,0.60
2018-02-11T06:06:49.091Z,0.80
2018-02-11T06:09:16.909Z,0.40
2018-02-11T06:11:44.395Z,0.70
2018-02-11T06:14:11.954Z,0.50
2018-02-11T06:16:39.463Z,0.53
2018-02-11T06:19:07.215Z,0.60
2018-02-11T06:21:34.890Z,0.40
2018-02-11T06:24:02.399Z,0.50
2018-02-11T06:26:32.616Z,0.60
2018-02-11T06:29:00.121Z,0.50
2018-02-11T06:31:28.408Z,0.50
2018-02-11T06:33:58.725Z,0.50
2018-02-11T06:36:26.956Z,0.50
2018-02-11T06:38:55.336Z,0.40
2018-02-11T06:41:22.905Z,0.43
2018-02-11T06:43:50.424Z,0.47
2018-02-11T06:46:17.953Z,0.50
2018-02-11T06:48:45.503Z,0.67
2018-02-11T06:51:13.000Z,0.40
2018-02-11T06:53:40.504Z,0.40
2018-02-11T06:56:08.020Z,0.30
2018-02-11T06:58:35.523Z,0.30
2018-02-11T07:01:03.868Z,0.40
2018-02-11T07:03:31.378Z,0.40
2018-02-11T07:05:58.860Z,0.40
2018-02-11T07:08:26.382Z,0.30
2018-02-11T07:10:53.880Z,0.40
2018-02-11T07:13:21.424Z,0.40
2018-02-11T07:15:49.701Z,0.30
2018-02-11T07:18:17.239Z,0.40
2018-02-11T07:20:44.739Z,0.40
2018-02-11T07:23:12.235Z,0.40
2018-02-11T07:25:39.776Z,0.30
2018-02-11T07:28:07.279Z,0.40
2018-02-11T07:30:34.808Z,0.50
2018-02-11T07:33:02.312Z,0.40
2018-02-11T07:35:30.604Z,0.40
2018-02-11T07:37:58.880Z,0.40
2018-02-11T07:40:26.427Z,0.30
2018-02-11T07:42:53.942Z,0.40
2018-02-11T07:45:21.448Z,0.40
2018-02-11T07:47:49.724Z,0.40
2018-02-11T07:50:17.215Z,0.40
2018-02-11T07:52:45.543Z,0.30
2018-02-11T07:55:13.813Z,0.40
2018-02-11T07:57:41.365Z,0.50
2018-02-11T08:00:08.892Z,0.43
2018-02-11T08:02:37.160Z,0.40
2018-02-11T08:05:04.716Z,0.33
2018-02-11T08:07:32.337Z,0.50
2018-02-11T08:09:59.872Z,0.40
2018-02-11T08:12:27.366Z,0.40
2018-02-11T08:14:55.265Z,0.40
2018-02-11T08:17:22.949Z,0.50
2018-02-11T08:19:50.464Z,0.50
2018-02-11T08:22:17.968Z,0.40
2018-02-11T08:24:46.263Z,0.70
2018-02-11T08:27:14.547Z,0.53
2018-02-11T08:29:42.061Z,0.40
2018-02-11T08:32:09.664Z,0.43
2018-02-11T08:34:37.176Z,0.40
2018-02-11T08:37:04.704Z,0.43
2018-02-11T08:39:32.996Z,0.50
2018-02-11T08:42:01.260Z,0.40
2018-02-11T08:44:29.703Z,0.43
2018-02-11T08:46:57.979Z,0.53
2018-02-11T08:49:25.475Z,1.47
2018-02-11T08:51:53.777Z,0.50
2018-02-11T08:54:22.049Z,0.50
2018-02-11T08:56:49.579Z,0.50
2018-02-11T08:59:17.090Z,0.40
2018-02-11T09:01:44.602Z,0.50
2018-02-11T09:04:12.912Z,0.40
2018-02-11T09:06:40.411Z,0.40
2018-02-11T09:09:08.678Z,0.40
2018-02-11T09:11:36.186Z,0.37
2018-02-11T09:14:03.723Z,0.50
2018-02-11T09:16:31.216Z,0.60
2018-02-11T09:18:58.709Z,0.50
2018-02-11T09:21:26.994Z,0.50
2018-02-11T09:23:54.487Z,0.60
2018-02-11T09:26:21.998Z,0.77
2018-02-11T09:28:50.268Z,0.60
2018-02-11T09:31:17.791Z,0.40
2018-02-11T09:33:45.321Z,0.60
2018-02-11T09:36:12.820Z,0.77
2018-02-11T09:38:40.321Z,0.50
2018-02-11T09:41:08.613Z,0.50
2018-02-11T09:43:36.114Z,0.50
2018-02-11T09:46:03.620Z,0.43
2018-02-11T09:48:31.147Z,0.87
2018-02-11T09:50:58.650Z,0.50
2018-02-11T09:53:26.923Z,0.50
2018-02-11T09:55:54.437Z,0.67
2018-02-11T09:58:22.700Z,0.53
2018-02-11T10:00:50.186Z,0.50
2018-02-11T10:03:17.723Z,0.67
2018-02-11T10:05:45.223Z,0.57
2018-02-11T10:08:12.735Z,0.60
2018-02-11T10:10:40.254Z,0.60
2018-02-11T10:13:07.796Z,0.67
2018-02-11T10:15:35.340Z,0.60
2018-02-11T10:18:02.880Z,0.40
2018-02-11T10:20:31.180Z,0.60
2018-02-11T10:22:59.459Z,0.70
2018-02-11T10:25:26.984Z,1.00
2018-02-11T10:27:54.479Z,0.63
2018-02-11T10:30:21.975Z,1.40
2018-02-11T10:32:49.490Z,0.57
2018-02-11T10:35:16.980Z,0.80
2018-02-11T10:37:44.583Z,0.70
2018-02-11T10:40:12.101Z,1.73
2018-02-11T10:42:39.588Z,0.90
2018-02-11T10:45:07.079Z,0.70
2018-02-11T10:47:34.607Z,1.10
2018-02-11T10:50:02.123Z,1.00
2018-02-11T10:52:29.620Z,1.23
2018-02-11T10:54:57.151Z,1.10
2018-02-11T10:57:25.416Z,0.70
2018-02-11T10:59:53.035Z,1.07
2018-02-11T11:02:21.300Z,0.70
2018-02-11T11:04:48.820Z,1.10
2018-02-11T11:07:16.320Z,1.60
2018-02-11T11:09:43.822Z,1.43
2018-02-11T11:12:11.334Z,1.73
2018-02-11T11:14:38.876Z,1.60
2018-02-11T11:17:06.409Z,2.70
2018-02-11T11:19:33.982Z,1.97
2018-02-11T11:22:01.529Z,1.93
2018-02-11T11:24:29.069Z,1.47
2018-02-11T11:26:56.643Z,1.40
2018-02-11T11:29:24.262Z,1.80
2018-02-11T11:31:51.831Z,1.43
2018-02-11T11:34:19.342Z,2.10
2018-02-11T11:36:46.880Z,2.10
2018-02-11T11:39:15.190Z,1.87
2018-02-11T11:41:42.832Z,3.00
2018-02-11T11:44:10.426Z,1.60
2018-02-11T11:46:37.956Z,1.10
2018-02-11T11:49:05.501Z,1.87
2018-02-11T11:51:33.110Z,1.53
2018-02-11T11:54:00.731Z,1.97
2018-02-11T11:56:28.330Z,2.23
2018-02-11T11:58:55.916Z,1.87
2018-02-11T12:01:23.599Z,1.57
2018-02-11T12:03:51.116Z,1.63
2018-02-11T12:06:19.517Z,2.20
2018-02-11T12:08:47.221Z,2.00
2018-02-11T12:11:15.562Z,2.13
2018-02-11T12:13:43.136Z,1.93
2018-02-11T12:16:10.702Z,1.63
2018-02-11T12:18:38.259Z,2.30
2018-02-11T12:21:05.804Z,1.73
2018-02-11T12:23:33.341Z,1.87
2018-02-11T12:26:00.868Z,1.50
2018-02-11T12:28:28.447Z,2.30
2018-02-11T12:30:56.069Z,2.43
2018-02-11T12:33:23.586Z,1.67
2018-02-11T12:35:51.116Z,1.60
2018-02-11T12:38:19.295Z,1.87
2018-02-11T12:40:46.841Z,1.43
2018-02-11T12:43:14.568Z,2.00
2018-02-11T12:45:42.149Z,2.33
2018-02-11T12:48:09.678Z,1.47
2018-02-11T12:50:37.260Z,2.53
2018-02-11T12:53:05.315Z,2.07
2018-02-11T12:55:33.073Z,2.00
2018-02-11T12:58:00.928Z,2.33
2018-02-11T13:00:28.526Z,1.70
2018-02-11T13:02:56.058Z,2.10
2018-02-11T13:05:23.622Z,1.80
2018-02-11T13:07:51.162Z,2.47
2018-02-11T13:10:19.260Z,2.17
2018-02-11T13:12:46.882Z,2.43
2018-02-11T13:15:14.526Z,2.70
2018-02-11T13:17:42.181Z,2.20
2018-02-11T13:20:09.827Z,2.83
2018-02-11T13:22:37.428Z,2.43
2018-02-11T13:25:04.944Z,2.30
2018-02-11T13:27:32.523Z,2.20
2018-02-11T13:30:00.069Z,2.57
2018-02-11T13:32:30.928Z,2.33
2018-02-11T13:34:58.493Z,2.80
2018-02-11T13:37:26.890Z,2.53
2018-02-11T13:39:54.438Z,2.70
2018-02-11T13:42:22.045Z,1.90
2018-02-11T13:44:49.604Z,1.60
2018-02-11T13:47:18.201Z,3.37
2018-02-11T13:49:45.942Z,2.47
2018-02-11T13:52:13.504Z,2.47
2018-02-11T13:54:41.146Z,2.47
2018-02-11T13:57:08.836Z,2.23
2018-02-11T13:59:36.777Z,2.27
2018-02-11T14:02:04.314Z,1.90
2018-02-11T14:04:32.193Z,2.17
2018-02-11T14:06:59.848Z,2.27
2018-02-11T14:09:27.504Z,2.30
2018-02-11T14:11:56.288Z,1.93
2018-02-11T14:14:24.597Z,1.50
2018-02-11T14:16:53.487Z,2.10
2018-02-11T14:19:33.742Z,2.10
2018-02-11T14:22:01.400Z,1.90
2018-02-11T14:24:29.084Z,2.30
2018-02-11T14:26:56.949Z,2.50
2018-02-11T14:29:24.545Z,1.70
2018-02-11T14:31:52.141Z,3.10
2018-02-11T14:34:22.410Z,2.40
2018-02-11T14:36:50.201Z,2.00
2018-02-11T14:39:18.713Z,2.60
2018-02-11T14:41:46.265Z,2.50
2018-02-11T14:44:13.784Z,2.60
2018-02-11T14:46:41.420Z,2.80
2018-02-11T14:49:09.019Z,3.20
2018-02-11T14:51:36.553Z,2.67
2018-02-11T14:54:05.040Z,3.23
2018-02-11T14:56:33.015Z,3.40
2018-02-11T14:59:01.229Z,2.73
2018-02-11T15:01:29.095Z,2.40
2018-02-11T15:04:02.038Z,3.50
2018-02-11T15:06:30.177Z,3.00
2018-02-11T15:08:57.850Z,3.27
2018-02-11T15:11:29.787Z,3.07
2018-02-11T15:14:00.403Z,3.33
2018-02-11T15:16:30.683Z,3.10
2018-02-11T15:18:59.258Z,3.33
2018-02-11T15:21:26.848Z,2.60
2018-02-11T15:23:54.449Z,2.60
2018-02-11T15:26:30.407Z,3.20
2018-02-11T15:29:00.998Z,2.70
2018-02-11T15:31:29.006Z,2.77
2018-02-11T15:33:56.658Z,2.87
2018-02-11T15:36:25.142Z,2.77
2018-02-11T15:38:52.661Z,3.03
2018-02-11T15:41:20.228Z,2.73
2018-02-11T15:43:48.575Z,3.17
2018-02-11T15:46:16.344Z,3.10
2018-02-11T15:48:44.007Z,2.80
2018-02-11T15:51:11.839Z,3.57
2018-02-11T15:53:39.459Z,3.87
2018-02-11T15:56:11.029Z,4.03
2018-02-11T15:58:38.634Z,3.43
2018-02-11T16:01:06.318Z,3.40
2018-02-11T16:03:33.968Z,4.13
2018-02-11T16:06:02.791Z,2.97
2018-02-11T16:08:30.452Z,4.20
2018-02-11T16:10:57.984Z,3.00
2018-02-11T16:13:25.501Z,2.60
2018-02-11T16:15:53.066Z,3.53
2018-02-11T16:18:20.610Z,3.07
2018-02-11T16:20:48.154Z,2.57
2018-02-11T16:23:15.707Z,3.80
2018-02-11T16:25:43.288Z,3.80
2018-02-11T16:28:10.880Z,3.83
2018-02-11T16:30:38.441Z,5.10
2018-02-11T16:33:06.356Z,3.83
2018-02-11T16:35:33.881Z,5.17
2018-02-11T16:38:01.488Z,5.03
2018-02-11T16:40:29.046Z,5.07
2018-02-11T16:42:56.576Z,5.57
2018-02-11T16:45:24.118Z,4.20
2018-02-11T16:47:51.682Z,3.80
2018-02-11T16:50:20.047Z,4.30
2018-02-11T16:52:47.590Z,4.10
2018-02-11T16:55:15.146Z,3.20
2018-02-11T16:57:42.673Z,4.40
2018-02-11T17:00:10.196Z,4.10
2018-02-11T17:02:37.787Z,3.37
2018-02-11T17:05:05.371Z,3.10
2018-02-11T17:07:32.912Z,4.50
2018-02-11T17:10:00.478Z,4.20
2018-02-11T17:12:28.070Z,4.03
2018-02-11T17:14:55.592Z,4.60
2018-02-11T17:17:23.167Z,4.70
2018-02-11T17:19:50.842Z,5.33
2018-02-11T17:22:18.397Z,3.27
2018-02-11T17:24:45.963Z,5.33
2018-02-11T17:27:13.519Z,4.67
2018-02-11T17:29:41.068Z,4.13
2018-02-11T17:32:08.603Z,8.90
2018-02-11T17:34:36.145Z,4.17
2018-02-11T17:37:03.779Z,5.50
2018-02-11T17:39:31.359Z,8.20
2018-02-11T17:41:58.909Z,11.20
2018-02-11T17:44:26.490Z,9.87
2018-02-11T17:46:54.205Z,5.37
2018-02-11T17:49:21.848Z,7.27
2018-02-11T17:51:49.452Z,3.60
2018-02-11T17:54:17.037Z,3.93
2018-02-11T17:56:44.620Z,3.73
2018-02-11T17:59:12.243Z,3.93
2018-02-11T18:01:39.970Z,4.43
2018-02-11T18:04:08.433Z,2.70
2018-02-11T18:06:35.986Z,3.43
2018-02-11T18:09:03.545Z,3.90
2018-02-11T18:11:31.054Z,3.33
2018-02-11T18:13:59.412Z,4.10
2018-02-11T18:16:26.948Z,3.70
2018-02-11T18:18:54.669Z,4.80
2018-02-11T18:21:22.283Z,3.40
2018-02-11T18:23:50.058Z,3.83
2018-02-11T18:26:17.605Z,3.77
2018-02-11T18:28:45.209Z,3.23
2018-02-11T18:31:13.860Z,3.10
2018-02-11T18:33:42.771Z,2.80
2018-02-11T18:36:10.513Z,2.90
2018-02-11T18:38:38.113Z,3.27
2018-02-11T18:41:06.442Z,3.37
2018-02-11T18:43:34.045Z,3.30
2018-02-11T18:46:01.588Z,4.27
2018-02-11T18:48:29.843Z,4.53
2018-02-11T18:50:57.478Z,3.50
2018-02-11T18:53:25.035Z,4.50
2018-02-11T18:55:52.662Z,4.40
2018-02-11T18:58:20.220Z,8.57
2018-02-11T19:00:51.721Z,5.00
2018-02-11T19:03:19.419Z,4.43
2018-02-11T19:05:47.068Z,5.03
2018-02-11T19:08:14.696Z,5.30
2018-02-11T19:10:42.318Z,5.93
2018-02-11T19:13:09.893Z,5.27
2018-02-11T19:15:37.466Z,5.50
2018-02-11T19:18:05.120Z,5.83
2018-02-11T19:20:32.665Z,6.13
2018-02-11T19:23:00.232Z,6.10
2018-02-11T19:25:27.817Z,5.70
2018-02-11T19:27:55.345Z,6.40
2018-02-11T19:30:22.997Z,4.97
2018-02-11T19:32:50.596Z,5.87
2018-02-11T19:35:18.175Z,5.20
2018-02-11T19:37:45.735Z,6.03
2018-02-11T19:40:13.343Z,5.03
2018-02-11T19:42:40.954Z,6.23
2018-02-11T19:45:08.487Z,6.57
2018-02-11T19:47:36.055Z,7.37
2018-02-11T19:50:03.661Z,6.93
2018-02-11T19:52:31.214Z,6.53
2018-02-11T19:54:58.788Z,7.07
2018-02-11T19:57:26.336Z,6.90
2018-02-11T19:59:53.979Z,7.13
2018-02-11T20:02:21.536Z,6.10
2018-02-11T20:04:49.070Z,8.40
2018-02-11T20:07:16.604Z,8.50
2018-02-11T20:09:44.202Z,7.37
2018-02-11T20:12:11.794Z,7.13
2018-02-11T20:14:39.514Z,6.70
2018-02-11T20:17:07.065Z,5.40
2018-02-11T20:19:34.608Z,6.00
2018-02-11T20:22:02.230Z,6.20
2018-02-11T20:24:29.837Z,4.40
2018-02-11T20:26:57.433Z,6.80
2018-02-11T20:29:25.030Z,7.00
2018-02-11T20:31:52.558Z,6.03
2018-02-11T20:34:20.058Z,5.80
2018-02-11T20:36:47.589Z,7.20
2018-02-11T20:39:15.156Z,7.33
2018-02-11T20:41:42.681Z,5.90
2018-02-11T20:44:10.334Z,6.00
2018-02-11T20:46:41.812Z,6.40
2018-02-11T20:49:09.382Z,5.83
2018-02-11T20:51:37.040Z,5.57
2018-02-11T20:57:06.661Z,4.50
2018-02-11T20:59:34.192Z,4.67
2018-02-11T21:02:01.720Z,5.33
2018-02-11T21:04:30.069Z,5.67
2018-02-11T21:06:57.581Z,5.63
2018-02-11T21:09:25.110Z,5.20
2018-02-11T21:11:52.746Z,5.80
2018-02-11T21:14:20.304Z,5.70
2018-02-11T21:16:47.903Z,5.47
2018-02-11T21:19:15.621Z,5.50
2018-02-11T21:21:43.182Z,5.40
2018-02-11T21:24:10.794Z,5.63
2018-02-11T21:26:38.607Z,5.07
2018-02-11T21:29:06.338Z,6.30
2018-02-11T21:31:33.948Z,6.57
2018-02-11T21:34:01.633Z,6.60
2018-02-11T21:36:29.265Z,6.10
2018-02-11T21:38:56.865Z,5.93
2018-02-11T21:41:24.457Z,6.50
2018-02-11T21:43:51.960Z,6.33
2018-02-11T21:46:19.662Z,6.77
2018-02-11T21:48:47.253Z,6.10
2018-02-11T21:51:14.914Z,6.63
2018-02-11T21:53:42.453Z,4.23
2018-02-11T21:56:09.993Z,4.07
2018-02-11T21:58:38.273Z,4.27
2018-02-11T22:04:30.295Z,2.70
2018-02-11T22:06:57.876Z,2.73
2018-02-11T22:09:25.384Z,2.47
2018-02-11T22:11:53.016Z,2.57
2018-02-11T22:14:20.576Z,2.53
2018-02-11T22:16:48.157Z,1.90
2018-02-11T22:19:15.676Z,2.13
2018-02-11T22:21:43.220Z,2.00
2018-02-11T22:26:46.006Z,2.00
2018-02-11T22:29:17.311Z,1.70
2018-02-11T22:31:45.559Z,1.60
2018-02-11T22:34:13.246Z,1.33
2018-02-11T22:36:41.760Z,1.67
2018-02-11T22:39:09.337Z,1.70
2018-02-11T22:41:45.552Z,1.00
2018-02-11T22:44:13.180Z,1.27
2018-02-11T22:46:40.717Z,1.20
2018-02-11T22:49:08.221Z,0.93
2018-02-11T22:51:35.996Z,0.80
2018-02-11T22:54:03.537Z,1.00
2018-02-11T22:56:33.843Z,1.03
2018-02-11T22:59:01.544Z,1.20
2018-02-11T23:01:29.635Z,1.00
2018-02-11T23:03:58.267Z,1.17
2018-02-11T23:06:25.826Z,0.80
2018-02-11T23:08:53.329Z,1.13
2018-02-11T23:11:20.840Z,1.13
2018-02-11T23:13:48.389Z,0.93
2018-02-11T23:16:15.919Z,1.03
2018-02-11T23:18:43.536Z,0.70
2018-02-11T23:21:20.008Z,1.10
2018-02-11T23:23:47.708Z,1.27
2018-02-11T23:26:15.214Z,1.00
2018-02-11T23:28:42.777Z,0.83
2018-02-11T23:31:10.371Z,0.87
2018-02-11T23:33:37.905Z,0.77
2018-02-11T23:36:05.448Z,1.00
2018-02-11T23:38:32.979Z,1.20
2018-02-11T23:41:01.167Z,1.57
2018-02-11T23:43:28.840Z,2.47
2018-02-11T23:45:56.405Z,2.90
2018-02-11T23:51:00.340Z,2.60
2018-02-11T23:53:27.875Z,2.50
2018-02-11T23:55:55.420Z,3.00
2018-02-11T23:58:23.070Z,3.00
